Time;durP1;ratioP1;P1;durP2;ratioP2;P2;SDS_P1;SDS_P2;PMS_P1;PMS_P2;Temp;Humidity;BMP_temperature;BMP_pressure;BME280_temperature;BME280_humidity;BME280_pressure;Samples;Min_cycle;Max_cycle;Signal;HPM_P1;HPM_P2
2022/06/10 00:01:16;;;;;;;12.23;2.20;;;19.00;99.90;;;;;;6196926;23;20000;-90
2022/06/10 00:03:42;;;;;;;10.23;1.65;;;18.90;99.90;;;;;;6196533;23;20019;-91
2022/06/10 00:06:13;;;;;;;13.43;1.92;;;18.60;99.90;;;;;;6196605;23;20012;-89
2022/06/10 00:08:46;;;;;;;13.32;2.28;;;18.50;99.90;;;;;;6195978;23;20396;-89
2022/06/10 00:11:13;;;;;;;12.55;1.90;;;18.50;99.90;;;;;;6195480;23;20004;-91
2022/06/10 00:13:43;;;;;;;16.33;1.83;;;18.50;99.90;;;;;;6195336;23;20079;-90
2022/06/10 00:16:10;;;;;;;17.17;2.15;;;18.60;99.90;;;;;;6195285;23;20008;-91
2022/06/10 00:18:37;;;;;;;8.40;2.03;;;18.70;99.90;;;;;;6195359;23;20012;-89
2022/06/10 00:21:07;;;;;;;13.60;1.83;;;18.80;99.90;;;;;;6195482;23;20051;-91
2022/06/10 00:23:33;;;;;;;16.88;2.33;;;18.80;99.90;;;;;;6195071;23;20016;-90
2022/06/10 00:26:00;;;;;;;12.88;2.58;;;18.70;99.90;;;;;;6195698;23;20008;-90
2022/06/10 00:28:27;;;;;;;10.63;1.80;;;18.60;99.90;;;;;;6195490;23;20016;-88
2022/06/10 00:30:53;;;;;;;11.30;1.73;;;18.60;99.90;;;;;;6195565;23;20004;-89
2022/06/10 00:33:20;;;;;;;12.68;1.70;;;18.60;99.90;;;;;;6195468;23;20338;-91
2022/06/10 00:35:47;;;;;;;14.70;2.35;;;18.60;99.90;;;;;;6195054;23;20028;-89
2022/06/10 00:38:14;;;;;;;8.95;1.90;;;18.50;99.90;;;;;;6196335;23;20123;-89
2022/06/10 00:40:54;;;;;;;16.83;1.98;;;18.40;99.90;;;;;;6196534;23;20088;-89
2022/06/10 00:43:24;;;;;;;11.10;2.00;;;18.40;99.90;;;;;;6196452;23;20434;-89
2022/06/10 00:46:11;;;;;;;8.45;1.75;;;18.40;99.90;;;;;;6196278;23;20004;-89
2022/06/10 00:49:08;;;;;;;13.30;1.90;;;18.40;99.90;;;;;;6196744;23;20012;-89
2022/06/10 00:51:46;;;;;;;14.95;2.58;;;18.40;99.90;;;;;;6198863;23;20030;-90
2022/06/10 00:54:43;;;;;;;14.95;2.10;;;18.40;99.90;;;;;;6196381;23;20008;-92
2022/06/10 00:57:31;;;;;;;11.57;1.65;;;18.40;99.90;;;;;;6196400;23;20004;-90
2022/06/10 01:00:07;;;;;;;15.23;2.60;;;18.50;99.90;;;;;;6196239;23;20019;-89
2022/06/10 01:02:35;;;;;;;11.18;2.65;;;18.50;99.90;;;;;;6195853;23;20004;-92
2022/06/10 01:05:10;;;;;;;10.70;1.88;;;18.60;99.90;;;;;;6195038;23;20019;-91
2022/06/10 01:07:42;;;;;;;9.32;1.80;;;18.60;99.90;;;;;;6195415;23;20059;-92
2022/06/10 01:10:16;;;;;;;13.13;2.80;;;18.60;99.90;;;;;;6195311;23;20016;-91
2022/06/10 01:12:57;;;;;;;10.85;2.05;;;18.60;99.90;;;;;;6195244;23;20011;-89
2022/06/10 01:15:53;;;;;;;8.65;1.80;;;18.60;99.90;;;;;;6195501;23;20505;-88
2022/06/10 01:18:56;;;;;;;5.05;1.60;;;18.60;99.90;;;;;;6195347;23;20015;-92
2022/06/10 01:21:55;;;;;;;15.68;2.47;;;18.60;99.90;;;;;;6195702;23;20502;-91
2022/06/10 01:24:40;;;;;;;6.78;2.13;;;18.50;99.90;;;;;;6196878;23;20016;-91
2022/06/10 01:27:49;;;;;;;4.25;1.63;;;18.50;99.90;;;;;;6196946;23;20015;-88
2022/06/10 01:30:51;;;;;;;5.10;1.80;;;18.50;99.90;;;;;;6196777;23;20441;-92
2022/06/10 01:33:44;;;;;;;7.28;3.35;;;18.40;99.90;;;;;;6197004;23;20012;-92
2022/06/10 01:36:36;;;;;;;10.07;2.63;;;18.40;99.90;;;;;;6196913;23;20008;-91
2022/06/10 01:39:27;;;;;;;11.93;2.53;;;18.30;99.90;;;;;;6197319;23;20008;-88
2022/06/10 01:42:22;;;;;;;8.43;2.72;;;18.30;99.90;;;;;;6199216;23;20011;-91
2022/06/10 01:45:07;;;;;;;;;;;18.30;99.90;;;;;;6198403;23;20102;-89
2022/06/10 01:48:07;;;;;;;8.30;2.10;;;18.20;99.90;;;;;;6197686;23;19939;-90
2022/06/10 01:50:57;;;;;;;5.55;1.95;;;18.30;99.90;;;;;;6201079;23;20004;-89
2022/06/10 01:53:37;;;;;;;10.52;2.03;;;18.40;99.90;;;;;;6197855;23;20051;-89
2022/06/10 01:56:07;;;;;;;10.27;1.83;;;18.40;99.90;;;;;;6197696;23;20015;-90
2022/06/10 01:58:50;;;;;;;8.63;1.85;;;18.50;99.90;;;;;;6197901;23;20012;-90
2022/06/10 02:01:21;;;;;;;8.73;1.83;;;18.50;99.90;;;;;;6197888;23;20008;-89
2022/06/10 02:04:14;;;;;;;9.48;1.98;;;18.40;99.90;;;;;;6197582;23;20106;-90
2022/06/10 02:06:51;;;;;;;8.93;2.40;;;18.40;99.90;;;;;;6197653;23;20011;-90
2022/06/10 02:09:40;;;;;;;9.38;2.08;;;18.40;99.90;;;;;;6197154;23;20012;-88
2022/06/10 02:12:15;;;;;;;10.43;2.30;;;18.50;99.90;;;;;;6196646;23;20437;-90
2022/06/10 02:14:55;;;;;;;8.18;2.25;;;18.60;99.90;;;;;;6196440;23;20453;-89
2022/06/10 02:17:25;;;;;;;10.55;2.67;;;18.60;99.90;;;;;;6196876;23;20031;-90
2022/06/10 02:19:58;;;;;;;6.45;2.55;;;18.60;99.90;;;;;;6196714;23;20016;-91
2022/06/10 02:22:37;;;;;;;8.00;2.65;;;18.60;99.90;;;;;;6196033;23;20016;-90
2022/06/10 02:25:22;;;;;;;8.55;3.15;;;18.50;99.90;;;;;;6196329;22;20020;-90
2022/06/10 02:27:55;;;;;;;6.13;2.67;;;18.50;99.90;;;;;;6196528;23;20010;-90
2022/06/10 02:30:28;;;;;;;6.28;3.40;;;18.50;99.90;;;;;;6196261;23;20008;-92
2022/06/10 02:32:57;;;;;;;3.20;2.50;;;18.40;99.90;;;;;;6196020;23;20004;-89
2022/06/10 02:35:29;;;;;;;5.57;2.60;;;18.40;99.90;;;;;;6196391;23;20091;-91
2022/06/10 02:38:09;;;;;;;8.65;2.70;;;18.40;99.90;;;;;;6197582;23;20004;-90
2022/06/10 02:40:53;;;;;;;6.93;3.33;;;18.40;99.90;;;;;;6197549;23;20012;-89
2022/06/10 02:43:35;;;;;;;8.77;3.30;;;18.30;99.90;;;;;;6197904;23;20016;-89
2022/06/10 02:46:21;;;;;;;8.35;3.10;;;18.30;99.90;;;;;;6197441;23;20054;-91
2022/06/10 02:49:03;;;;;;;8.45;2.95;;;18.30;99.90;;;;;;6197351;23;20008;-89
2022/06/10 02:51:33;;;;;;;12.43;3.13;;;18.30;99.90;;;;;;6197331;23;20008;-91
2022/06/10 02:54:02;;;;;;;7.38;3.42;;;18.20;99.90;;;;;;6197209;23;20319;-91
2022/06/10 02:56:30;;;;;;;7.88;2.88;;;18.20;99.90;;;;;;6197498;23;20087;-89
2022/06/10 03:02:25;;;;;;;8.98;2.53;;;18.30;99.90;;;;;;6232769;23;20035;-92
2022/06/10 03:05:35;;;;;;;9.57;2.33;;;18.30;99.90;;;;;;6198862;23;20035;-90
2022/06/10 03:08:25;;;;;;;6.63;2.67;;;18.40;99.90;;;;;;6077870;23;20020;-89
2022/06/10 03:11:30;;;;;;;8.85;2.95;;;18.40;99.90;;;;;;6077956;23;20052;-89
2022/06/10 03:14:12;;;;;;;8.20;2.58;;;18.40;99.90;;;;;;6102016;23;20468;-89
2022/06/10 03:16:58;;;;;;;10.68;3.63;;;18.40;99.90;;;;;;6101666;23;20032;-91
2022/06/10 03:19:37;;;;;;;8.85;3.58;;;18.40;99.90;;;;;;6101411;23;20010;-93
2022/06/10 03:22:35;;;;;;;11.93;4.20;;;18.40;99.90;;;;;;6100983;23;20034;-90
2022/06/10 03:25:44;;;;;;;7.45;4.20;;;18.40;99.90;;;;;;6077097;23;20057;-89
2022/06/10 03:28:55;;;;;;;8.20;4.40;;;18.40;99.90;;;;;;6093754;23;20092;-93
2022/06/10 03:31:46;;;;;;;7.28;3.83;;;18.40;99.90;;;;;;6015098;23;20106;-92
2022/06/10 03:34:29;;;;;;;8.40;4.93;;;18.50;99.90;;;;;;6098466;23;20318;-91
2022/06/10 03:37:08;;;;;;;10.55;4.53;;;18.50;99.90;;;;;;6101195;23;20006;-90
2022/06/10 03:39:41;;;;;;;12.32;4.70;;;18.50;99.90;;;;;;6205201;23;20083;-90
2022/06/10 03:42:09;;;;;;;8.13;4.28;;;18.50;99.90;;;;;;6196580;23;20004;-90
2022/06/10 03:44:37;;;;;;;9.40;4.57;;;18.60;99.90;;;;;;6196719;23;20025;-94
2022/06/10 03:47:08;;;;;;;8.88;4.53;;;18.60;99.90;;;;;;6197100;23;20031;-93
2022/06/10 03:49:54;;;;;;;7.93;4.57;;;18.60;99.90;;;;;;6197369;23;20003;-92
2022/06/10 03:52:26;;;;;;;9.13;5.40;;;18.60;99.90;;;;;;6196758;23;20008;-90
2022/06/10 03:54:53;;;;;;;15.80;5.38;;;18.60;99.90;;;;;;6196961;23;20141;-91
2022/06/10 03:57:20;;;;;;;11.48;4.78;;;18.60;99.90;;;;;;6196915;23;20014;-90
2022/06/10 03:59:48;;;;;;;11.05;4.38;;;18.60;99.90;;;;;;6196726;23;20073;-90
2022/06/10 04:02:17;;;;;;;13.82;4.88;;;18.60;99.90;;;;;;6196728;23;20004;-91
2022/06/10 04:04:45;;;;;;;7.43;4.70;;;18.50;99.90;;;;;;6196530;23;20016;-91
2022/06/10 04:07:15;;;;;;;9.70;4.90;;;18.60;99.90;;;;;;6196627;23;20038;-90
2022/06/10 04:09:42;;;;;;;9.07;4.20;;;18.60;99.90;;;;;;6195871;23;20008;-92
2022/06/10 04:12:09;;;;;;;8.10;4.55;;;18.70;99.90;;;;;;6195468;23;20012;-92
2022/06/10 04:14:36;;;;;;;7.88;4.55;;;18.70;99.90;;;;;;6195433;23;20525;-91
2022/06/10 04:17:04;;;;;;;8.18;5.18;;;18.70;99.90;;;;;;6195641;23;20000;-91
2022/06/10 04:19:30;;;;;;;17.35;5.47;;;18.60;99.90;;;;;;6196008;23;20008;-90
2022/06/10 04:21:57;;;;;;;9.10;4.20;;;18.60;99.90;;;;;;6189181;23;20004;-91
2022/06/10 04:24:24;;;;;;;12.27;4.63;;;18.60;99.90;;;;;;6165517;23;20020;-91
2022/06/10 04:26:52;;;;;;;13.57;5.57;;;18.60;99.90;;;;;;6165449;23;20075;-91
2022/06/10 04:29:22;;;;;;;12.63;4.53;;;18.70;99.90;;;;;;6165325;23;20019;-92
2022/06/10 04:31:52;;;;;;;14.23;4.40;;;18.60;99.90;;;;;;6165774;23;20079;-91
2022/06/10 04:34:18;;;;;;;8.52;4.22;;;18.70;99.90;;;;;;6166706;23;20505;-91
2022/06/10 04:36:45;;;;;;;7.25;4.13;;;18.80;99.90;;;;;;6166842;23;20031;-92
2022/06/10 04:39:11;;;;;;;9.75;4.00;;;18.80;99.90;;;;;;6166776;23;20020;-92
2022/06/10 04:41:39;;;;;;;4.80;3.38;;;18.90;99.90;;;;;;6166401;23;20423;-90
2022/06/10 04:44:06;;;;;;;5.50;2.53;;;18.80;99.90;;;;;;6166695;23;20017;-92
2022/06/10 04:46:41;;;;;;;5.38;3.30;;;18.80;99.90;;;;;;6166415;23;20013;-91
2022/06/10 04:49:11;;;;;;;9.35;4.00;;;18.90;99.90;;;;;;6166543;23;20009;-93
2022/06/10 04:51:37;;;;;;;8.88;3.30;;;19.20;99.90;;;;;;6167060;23;20005;-93
2022/06/10 04:54:06;;;;;;;8.90;3.60;;;19.60;99.90;;;;;;6166734;23;20299;-93
2022/06/10 04:56:33;;;;;;;9.25;3.35;;;19.80;99.90;;;;;;6166981;23;20093;-90
2022/06/10 04:59:03;;;;;;;5.15;3.40;;;19.80;99.90;;;;;;6168785;23;20059;-94
2022/06/10 05:01:29;;;;;;;6.22;3.47;;;20.00;99.90;;;;;;6168139;23;20067;-90
2022/06/10 05:03:56;;;;;;;6.07;3.35;;;20.50;99.90;;;;;;6167239;23;20453;-90
2022/06/10 05:06:25;;;;;;;7.55;2.70;;;21.00;99.90;;;;;;6167091;23;20136;-90
2022/06/10 05:08:51;;;;;;;6.40;2.40;;;21.60;99.90;;;;;;6167715;23;20044;-91
2022/06/10 05:11:18;;;;;;;5.57;2.60;;;22.20;99.90;;;;;;6168959;23;20001;-93
2022/06/10 05:13:44;;;;;;;4.70;2.20;;;23.20;99.90;;;;;;6167395;23;20004;-90
2022/06/10 05:16:13;;;;;;;3.28;1.50;;;24.00;99.90;;;;;;6167270;23;20000;-90
2022/06/10 05:18:40;;;;;;;4.00;1.88;;;25.00;99.90;;;;;;6167134;23;20086;-91
2022/06/10 05:21:10;;;;;;;4.00;2.00;;;25.80;99.90;;;;;;6167835;23;20426;-91
2022/06/10 05:23:37;;;;;;;4.30;1.77;;;26.40;99.90;;;;;;6218683;23;20012;-93
2022/06/10 05:26:04;;;;;;;5.80;2.00;;;26.20;99.90;;;;;;6197679;23;20035;-90
2022/06/10 05:28:34;;;;;;;2.30;1.67;;;26.80;99.90;;;;;;6199050;23;20083;-92
2022/06/10 05:31:00;;;;;;;3.72;1.92;;;26.80;99.90;;;;;;6197751;23;20000;-92
2022/06/10 05:34:44;;;;;;;4.10;1.70;;;26.50;99.90;;;;;;6197317;23;20012;-90
2022/06/10 05:36:13;;;;;;;4.30;1.75;;;26.70;99.90;;;;;;6223445;23;20011;-94
2022/06/10 05:38:40;;;;;;;6.40;1.23;;;27.60;99.90;;;;;;6197951;23;20050;-93
2022/06/10 05:43:57;;;;;;;2.78;1.55;;;28.60;99.90;;;;;;6222824;23;20020;-92
2022/06/10 05:46:24;;;;;;;2.53;1.10;;;28.90;99.90;;;;;;6198151;23;20000;-92
2022/06/10 05:48:50;;;;;;;3.13;1.00;;;28.90;99.90;;;;;;6197970;23;20040;-93
2022/06/10 05:51:18;;;;;;;4.28;1.10;;;28.90;99.90;;;;;;6197738;23;20000;-94
2022/06/10 05:53:45;;;;;;;2.05;1.15;;;29.40;99.90;;;;;;6198136;23;20008;-93
2022/06/10 05:56:12;;;;;;;2.17;1.13;;;29.40;99.90;;;;;;6198026;23;20008;-93
2022/06/10 05:58:38;;;;;;;1.20;1.10;;;29.10;99.90;;;;;;6198046;23;20073;-93
2022/06/10 06:01:23;;;;;;;1.55;1.08;;;30.00;99.90;;;;;;6197889;23;20008;-93
2022/06/10 06:03:50;;;;;;;1.90;1.15;;;29.10;99.90;;;;;;6198176;23;20012;-92
2022/06/10 06:06:18;;;;;;;1.67;0.85;;;27.80;99.90;;;;;;6197534;23;20012;-94
2022/06/10 06:08:46;;;;;;;1.95;0.80;;;27.80;99.90;;;;;;6196657;23;20008;-92
2022/06/10 06:11:13;;;;;;;1.50;0.77;;;26.90;99.90;;;;;;6200906;23;20011;-93
2022/06/10 06:13:39;;;;;;;7.68;2.20;;;26.60;99.90;;;;;;6197674;22;20008;-91
2022/06/10 06:16:08;;;;;;;1.98;1.23;;;26.80;99.90;;;;;;6197006;23;20086;-93
2022/06/10 06:18:35;;;;;;;3.33;1.27;;;26.80;99.90;;;;;;6197840;23;20438;-94
2022/06/10 06:21:05;;;;;;;2.17;1.20;;;26.30;99.90;;;;;;6196975;23;20004;-93
2022/06/10 06:23:35;;;;;;;1.73;1.05;;;24.80;99.90;;;;;;6172271;23;20389;-92
2022/06/10 06:26:01;;;;;;;2.85;1.20;;;24.00;99.90;;;;;;6167957;23;20009;-90
2022/06/10 06:28:28;;;;;;;3.63;1.20;;;23.70;99.90;;;;;;6166374;23;20038;-91
2022/06/10 06:30:57;;;;;;;2.08;0.90;;;23.50;99.90;;;;;;6166399;23;20087;-90
2022/06/10 06:33:24;;;;;;;1.83;1.00;;;24.30;99.90;;;;;;6178335;23;20005;-93
2022/06/10 06:35:54;;;;;;;2.38;1.33;;;25.50;99.90;;;;;;6162467;22;20020;-93
2022/06/10 06:38:23;;;;;;;2.40;1.10;;;25.90;99.90;;;;;;6207416;23;20012;-92
2022/06/10 06:41:22;;;;;;;2.17;1.02;;;26.60;99.90;;;;;;6209516;23;20008;-94
2022/06/10 06:44:19;;;;;;;3.60;1.05;;;26.80;99.90;;;;;;6128698;22;20008;-92
2022/06/10 06:48:08;;;;;;;2.42;0.88;;;27.90;99.90;;;;;;6165954;23;20015;-94
2022/06/10 06:53:45;;;;;;;3.85;0.90;;;28.00;99.90;;;;;;6272787;22;20051;-94
2022/06/10 06:56:43;;;;;;;2.85;0.80;;;26.80;99.90;;;;;;6262806;22;20032;-93
2022/06/10 06:59:25;;;;;;;1.83;0.80;;;26.20;99.90;;;;;;6210964;23;20012;-94
2022/06/10 07:01:58;;;;;;;0.85;0.70;;;25.40;99.90;;;;;;6183697;23;20016;-94
2022/06/10 07:04:51;;;;;;;2.75;0.90;;;24.70;99.90;;;;;;6239048;23;20001;-93
2022/06/10 07:07:44;;;;;;;1.77;0.95;;;25.40;99.90;;;;;;6203691;23;20062;-93
2022/06/10 07:10:36;;;;;;;1.35;1.00;;;26.70;99.90;;;;;;6154083;23;20017;-94
2022/06/10 07:13:40;;;;;;;0.93;0.93;;;25.40;99.90;;;;;;6184954;23;19993;-92
2022/06/10 07:17:02;;;;;;;2.42;1.00;;;24.90;99.90;;;;;;6207839;23;20027;-93
2022/06/10 07:19:43;;;;;;;1.92;1.00;;;26.10;99.90;;;;;;6116936;23;20069;-94
2022/06/10 07:22:12;;;;;;;1.58;0.93;;;27.70;99.90;;;;;;6096185;23;19999;-93
2022/06/10 07:24:57;;;;;;;2.95;0.90;;;28.90;99.90;;;;;;6096074;23;20018;-92
2022/06/10 07:27:36;;;;;;;1.95;1.17;;;29.60;99.90;;;;;;6101429;23;20021;-92
2022/06/10 07:30:37;;;;;;;0.90;0.90;;;30.20;99.90;;;;;;6191429;23;20004;-93
2022/06/10 07:45:46;;;;;;;1.83;1.10;;;30.60;99.90;;;;;;6232320;22;20024;-93
2022/06/10 07:48:16;;;;;;;1.58;1.48;;;30.90;99.90;;;;;;6229299;23;20020;-89
2022/06/10 07:50:44;;;;;;;1.50;1.38;;;31.10;99.90;;;;;;6190597;23;20006;-89
2022/06/10 07:53:11;;;;;;;1.80;1.70;;;30.90;99.90;;;;;;6216427;23;20035;-89
2022/06/10 07:55:40;;;;;;;2.00;1.90;;;31.30;99.90;;;;;;6192770;23;20009;-87
2022/06/10 07:58:07;;;;;;;2.33;1.25;;;31.70;99.90;;;;;;6185521;23;20009;-90
2022/06/10 08:00:34;;;;;;;0.85;0.75;;;30.80;99.90;;;;;;6163234;23;20005;-90
2022/06/10 08:03:05;;;;;;;1.83;0.90;;;28.60;99.90;;;;;;6160979;23;20084;-90
2022/06/10 08:05:33;;;;;;;2.03;1.25;;;27.40;99.90;;;;;;6185372;23;20013;-89
2022/06/10 08:08:01;;;;;;;3.65;1.20;;;27.30;99.90;;;;;;6160662;23;20008;-90
2022/06/10 08:10:33;;;;;;;4.47;1.00;;;27.30;99.90;;;;;;6186835;23;20013;-88
2022/06/10 08:13:04;;;;;;;1.05;0.73;;;27.20;99.90;;;;;;6162684;23;20009;-91
2022/06/10 08:15:31;;;;;;;1.60;0.80;;;27.60;99.90;;;;;;6162605;23;20005;-92
2022/06/10 08:18:03;;;;;;;4.07;1.33;;;27.80;99.90;;;;;;6185694;23;20399;-92
2022/06/10 08:23:19;;;;;;;2.45;1.25;;;28.50;99.90;;;;;;6182421;23;20067;-87
2022/06/10 08:25:45;;;;;;;2.40;0.90;;;28.50;99.90;;;;;;6159223;23;20335;-88
2022/06/10 08:28:12;;;;;;;1.52;1.00;;;28.50;99.90;;;;;;6160404;23;20008;-89
2022/06/10 08:30:39;;;;;;;1.20;0.80;;;28.80;99.90;;;;;;6185295;23;20462;-89
2022/06/10 08:33:06;;;;;;;1.15;0.88;;;28.90;99.90;;;;;;6162352;23;20032;-89
2022/06/10 08:35:34;;;;;;;1.73;1.00;;;28.70;99.90;;;;;;6187359;23;20051;-90
2022/06/10 08:38:03;;;;;;;1.50;1.02;;;28.80;99.90;;;;;;6162626;23;20005;-88
2022/06/10 08:40:54;;;;;;;1.85;1.10;;;28.80;99.90;;;;;;6162773;23;20009;-89
2022/06/10 08:43:35;;;;;;;1.52;0.95;;;28.80;99.90;;;;;;6162453;23;20021;-90
2022/06/10 08:46:20;;;;;;;1.38;1.23;;;28.90;99.90;;;;;;6187133;23;20036;-91
2022/06/10 08:49:18;;;;;;;2.15;0.90;;;28.90;99.90;;;;;;6191925;23;20016;-91
2022/06/10 08:51:51;;;;;;;2.38;0.77;;;28.80;99.90;;;;;;6167499;23;20430;-83
2022/06/10 08:54:32;;;;;;;0.90;0.40;;;28.50;99.90;;;;;;6191324;23;20443;-83
2022/06/10 08:57:06;;;;;;;0.95;0.50;;;27.80;99.90;;;;;;6190690;23;20316;-83
2022/06/10 08:59:43;;;;;;;2.30;0.50;;;27.40;99.90;;;;;;6191259;23;20073;-83
2022/06/10 09:02:41;;;;;;;1.42;0.57;;;26.60;99.90;;;;;;6191173;23;20007;-83
2022/06/10 09:05:28;;;;;;;0.55;0.40;;;26.00;99.90;;;;;;6072667;23;20101;-82
2022/06/10 09:08:03;;;;;;;0.93;0.50;;;25.40;99.90;;;;;;6096610;23;20014;-82
2022/06/10 09:10:39;;;;;;;1.80;0.60;;;25.40;99.90;;;;;;6096600;23;20007;-82
2022/06/10 09:13:41;;;;;;;1.45;0.50;;;25.50;99.90;;;;;;6096659;23;20089;-82
2022/06/10 09:16:26;;;;;;;0.90;0.60;;;26.40;99.90;;;;;;6072498;23;20081;-82
2022/06/10 09:19:22;;;;;;;1.67;0.90;;;27.10;99.90;;;;;;6096517;23;20034;-82
2022/06/10 09:22:11;;;;;;;0.80;0.80;;;27.80;99.90;;;;;;6072773;23;20474;-83
2022/06/10 09:24:58;;;;;;;0.45;0.45;;;28.50;99.90;;;;;;6096496;23;20051;-82
2022/06/10 09:27:28;;;;;;;1.00;0.90;;;27.60;99.90;;;;;;6072230;23;20014;-80
2022/06/10 09:29:57;;;;;;;1.45;0.88;;;27.70;99.90;;;;;;6096716;23;20050;-85
2022/06/10 09:32:41;;;;;;;3.33;1.00;;;27.30;99.90;;;;;;6073041;23;20018;-84
2022/06/10 09:35:49;;;;;;;1.58;1.13;;;26.20;99.90;;;;;;6073044;23;20006;-87
2022/06/10 09:38:23;;;;;;;1.60;0.80;;;25.90;99.90;;;;;;6063475;23;20021;-91
2022/06/10 09:41:04;;;;;;;0.93;0.77;;;25.80;99.90;;;;;;6128821;23;20037;-79
2022/06/10 09:43:43;;;;;;;3.20;0.95;;;26.00;99.90;;;;;;6190830;23;20267;-80
2022/06/10 09:46:31;;;;;;;1.23;0.70;;;26.00;99.90;;;;;;6217531;23;20096;-79
2022/06/10 09:49:30;;;;;;;1.38;0.60;;;25.80;99.90;;;;;;6217521;23;20013;-79
2022/06/10 09:52:22;;;;;;;1.52;0.77;;;24.90;99.90;;;;;;6191004;23;20011;-80
2022/06/10 09:55:22;;;;;;;2.47;0.63;;;24.30;99.90;;;;;;6217574;23;20004;-80
2022/06/10 09:58:12;;;;;;;1.45;0.82;;;24.00;99.90;;;;;;6217446;23;20012;-79
2022/06/10 10:00:51;;;;;;;1.02;0.55;;;24.20;99.90;;;;;;6190552;23;20032;-79
2022/06/10 10:03:46;;;;;;;1.90;0.75;;;24.20;99.90;;;;;;6190936;23;20008;-79
2022/06/10 10:06:27;;;;;;;;;;;24.30;99.90;;;;;;6217834;23;20084;-79
2022/06/10 10:09:45;;;;;;;3.42;0.70;;;24.50;99.90;;;;;;6165599;23;20264;-79
2022/06/10 10:12:43;;;;;;;2.38;0.90;;;24.90;99.90;;;;;;6096167;23;20078;-79
2022/06/10 10:15:23;;;;;;;2.25;0.90;;;25.30;99.90;;;;;;6071848;23;20433;-79
2022/06/10 10:18:15;;;;;;;1.85;0.77;;;25.30;99.90;;;;;;6096044;23;20017;-79
2022/06/10 10:21:13;;;;;;;2.58;1.23;;;25.50;99.90;;;;;;6096259;23;20014;-79
2022/06/10 10:23:46;;;;;;;2.05;1.00;;;25.90;99.90;;;;;;6095395;23;20046;-77
2022/06/10 10:26:41;;;;;;;1.43;0.80;;;25.60;99.90;;;;;;6095917;23;20010;-79
2022/06/10 10:29:19;;;;;;;1.63;0.65;;;25.20;99.90;;;;;;6072044;23;20436;-78
2022/06/10 10:31:59;;;;;;;3.53;0.82;;;24.70;99.90;;;;;;6096191;23;20098;-79
2022/06/10 10:34:31;;;;;;;1.60;0.70;;;24.40;99.90;;;;;;6095674;23;20036;-78
2022/06/10 10:37:01;;;;;;;2.55;1.00;;;24.70;99.90;;;;;;6071724;23;20058;-78
2022/06/10 10:39:32;;;;;;;2.08;0.70;;;25.10;99.90;;;;;;6095738;23;20456;-79
2022/06/10 10:42:20;;;;;;;2.05;0.70;;;24.90;99.90;;;;;;6096350;23;20014;-78
2022/06/10 10:45:03;;;;;;;2.95;0.63;;;25.00;99.90;;;;;;6095563;23;20093;-78
2022/06/10 10:47:31;;;;;;;0.90;0.53;;;25.30;99.90;;;;;;6134273;23;20009;-79
2022/06/10 10:50:06;;;;;;;2.78;0.80;;;25.20;99.90;;;;;;6216415;23;20020;-79
2022/06/10 10:52:35;;;;;;;2.83;1.00;;;25.30;99.90;;;;;;6190220;23;20011;-80
2022/06/10 10:55:13;;;;;;;3.00;0.88;;;26.00;99.90;;;;;;6164786;23;20016;-79
2022/06/10 10:57:53;;;;;;;3.17;0.90;;;25.90;99.90;;;;;;6216756;23;20426;-79
2022/06/10 11:00:42;;;;;;;0.85;0.70;;;26.10;99.90;;;;;;6189741;23;20036;-79
2022/06/10 11:03:23;;;;;;;5.43;0.70;;;26.40;99.90;;;;;;6190197;23;20022;-79
2022/06/10 11:05:52;;;;;;;2.65;0.73;;;26.50;99.90;;;;;;6190882;23;20012;-85
2022/06/10 11:08:34;;;;;;;1.23;0.60;;;26.10;99.90;;;;;;6190711;23;20000;-85
2022/06/10 11:11:07;;;;;;;3.53;0.70;;;26.20;99.90;;;;;;6165640;23;20091;-81
2022/06/10 11:13:59;;;;;;;3.75;0.98;;;26.10;99.90;;;;;;6190414;23;20005;-82
2022/06/10 11:16:29;;;;;;;1.02;0.50;;;26.20;99.90;;;;;;6165241;23;20048;-83
2022/06/10 11:19:20;;;;;;;1.25;0.60;;;25.90;99.90;;;;;;6165178;23;20039;-84
2022/06/10 11:22:08;;;;;;;0.93;0.70;;;25.80;99.90;;;;;;6190214;23;20009;-83
2022/06/10 11:24:37;;;;;;;1.48;0.65;;;25.80;99.90;;;;;;6165469;23;20100;-84
2022/06/10 11:27:32;;;;;;;2.55;0.65;;;25.70;99.90;;;;;;6179850;23;20039;-93
2022/06/10 11:30:03;;;;;;;2.38;0.50;;;25.90;99.90;;;;;;6172211;23;20008;-92
2022/06/10 11:32:40;;;;;;;4.93;0.73;;;25.20;99.90;;;;;;6167537;23;20473;-92
2022/06/10 11:35:33;;;;;;;1.98;0.85;;;24.80;99.90;;;;;;6191226;23;20008;-92
2022/06/10 11:38:43;;;;;;;5.10;0.70;;;24.70;99.90;;;;;;6166081;23;20005;-92
2022/06/10 11:41:22;;;;;;;1.95;0.80;;;25.10;99.90;;;;;;6189114;23;20009;-90
2022/06/10 11:43:56;;;;;;;3.03;0.68;;;25.30;99.90;;;;;;6165741;23;20017;-91
2022/06/10 11:46:29;;;;;;;2.05;0.70;;;25.10;99.90;;;;;;6166070;23;20012;-91
2022/06/10 11:49:17;;;;;;;2.45;0.57;;;25.30;99.90;;;;;;6165789;23;20008;-91
2022/06/10 11:51:53;;;;;;;1.25;0.73;;;25.20;99.90;;;;;;6190836;23;20086;-92
2022/06/10 11:54:58;;;;;;;2.45;1.10;;;25.10;99.90;;;;;;6166323;23;20020;-91
2022/06/10 12:00:53;;;;;;;1.42;0.80;;;25.10;99.90;;;;;;6096870;23;20018;-93
2022/06/10 12:03:34;;;;;;;4.25;0.65;;;25.30;99.90;;;;;;6154573;23;20047;-92
2022/06/10 12:06:10;;;;;;;1.38;0.60;;;25.30;99.90;;;;;;6191650;23;20427;-92
2022/06/10 12:09:02;;;;;;;2.88;0.80;;;25.30;99.90;;;;;;6166470;23;20005;-93
2022/06/10 12:11:41;;;;;;;1.30;0.50;;;25.00;99.90;;;;;;6166675;23;20020;-91
2022/06/10 12:14:41;;;;;;;2.67;0.70;;;24.90;99.90;;;;;;6166377;23;20005;-93
2022/06/10 12:17:38;;;;;;;1.20;1.00;;;25.00;99.90;;;;;;6168972;23;20013;-92
2022/06/10 12:20:27;;;;;;;2.22;0.88;;;25.20;99.90;;;;;;6171826;23;20005;-91
2022/06/10 12:22:53;;;;;;;2.10;0.77;;;25.50;99.90;;;;;;6168456;23;20004;-93
2022/06/10 12:25:35;;;;;;;1.20;0.98;;;25.10;99.90;;;;;;6167335;23;20012;-93
2022/06/10 12:28:23;;;;;;;1.98;0.90;;;24.90;99.90;;;;;;6161835;23;20071;-92
2022/06/10 12:31:19;;;;;;;0.85;0.70;;;24.70;99.90;;;;;;6136642;23;20017;-91
2022/06/10 12:34:12;;;;;;;3.17;0.90;;;24.70;99.90;;;;;;6136511;23;20009;-91
2022/06/10 12:36:47;;;;;;;1.35;0.90;;;24.90;99.90;;;;;;6136586;23;20005;-93
2022/06/10 12:39:20;;;;;;;3.10;1.10;;;24.50;99.90;;;;;;6136862;23;20375;-92
2022/06/10 12:42:09;;;;;;;1.13;1.00;;;24.90;99.90;;;;;;6137232;23;20015;-91
2022/06/10 12:44:41;;;;;;;0.85;0.85;;;24.90;99.90;;;;;;6161720;23;20013;-92
2022/06/10 12:47:12;;;;;;;4.07;1.30;;;24.80;99.90;;;;;;6137064;23;20005;-92
2022/06/10 12:49:43;;;;;;;2.45;1.00;;;24.70;99.90;;;;;;6137538;23;20009;-91
2022/06/10 12:52:25;;;;;;;1.70;0.95;;;25.00;99.90;;;;;;6136494;23;20040;-92
2022/06/10 12:54:51;;;;;;;2.60;0.80;;;24.70;99.90;;;;;;6186903;23;20009;-92
2022/06/10 12:57:36;;;;;;;1.30;0.90;;;24.70;99.90;;;;;;6139223;23;20001;-92
2022/06/10 13:00:18;;;;;;;1.63;0.90;;;24.70;99.90;;;;;;6137000;23;20443;-91
2022/06/10 13:02:59;;;;;;;2.47;0.80;;;24.90;99.90;;;;;;6161153;23;20005;-91
2022/06/10 13:05:47;;;;;;;1.17;1.08;;;24.90;99.90;;;;;;6137407;23;20015;-93
2022/06/10 13:08:39;;;;;;;1.35;1.20;;;25.00;99.90;;;;;;6143065;23;20503;-93
2022/06/10 13:11:27;;;;;;;1.77;1.00;;;24.90;99.90;;;;;;6186104;23;20009;-92
2022/06/10 13:14:33;;;;;;;1.23;1.13;;;25.10;99.90;;;;;;6177855;23;20005;-91
2022/06/10 13:17:07;;;;;;;2.22;1.30;;;24.90;99.90;;;;;;6053840;23;20127;-93
2022/06/10 13:19:52;;;;;;;4.18;1.27;;;25.10;99.90;;;;;;6162967;23;20100;-92
2022/06/10 13:22:20;;;;;;;5.25;1.40;;;25.20;99.90;;;;;;6153373;23;20069;-92
2022/06/10 13:24:58;;;;;;;2.42;1.58;;;25.30;99.90;;;;;;6154962;23;20081;-93
2022/06/10 13:27:42;;;;;;;3.72;1.38;;;25.00;99.90;;;;;;6163548;23;20012;-93
2022/06/10 13:30:33;;;;;;;3.53;1.67;;;25.20;99.90;;;;;;6204627;23;20008;-93
2022/06/10 13:33:12;;;;;;;3.78;1.38;;;24.70;99.90;;;;;;6204482;23;20008;-92
2022/06/10 13:35:48;;;;;;;3.38;1.63;;;24.60;99.90;;;;;;6180003;23;20008;-93
2022/06/10 13:38:18;;;;;;;2.55;1.60;;;25.00;99.90;;;;;;6206314;23;20016;-92
2022/06/10 13:43:47;;;;;;;1.88;1.50;;;25.60;99.90;;;;;;6189141;23;20073;-91
2022/06/10 13:46:30;;;;;;;2.92;1.60;;;25.60;99.90;;;;;;6171227;23;20036;-92
2022/06/10 13:49:17;;;;;;;3.33;1.30;;;25.60;99.90;;;;;;6164090;23;20012;-91
2022/06/10 13:51:50;;;;;;;3.92;2.10;;;25.70;99.90;;;;;;6167991;23;20035;-91
2022/06/10 13:54:26;;;;;;;2.80;1.13;;;25.70;99.90;;;;;;6167624;23;20434;-92
2022/06/10 13:56:52;;;;;;;2.65;1.42;;;25.50;99.90;;;;;;6167217;23;20013;-92
2022/06/10 13:59:29;;;;;;;2.08;1.33;;;24.80;99.90;;;;;;6191666;23;20047;-92
2022/06/10 14:02:11;;;;;;;2.75;1.60;;;24.60;99.90;;;;;;6167142;23;20067;-92
2022/06/10 14:04:38;;;;;;;1.73;0.90;;;24.70;99.90;;;;;;6192661;23;20384;-91
2022/06/10 14:07:20;;;;;;;3.90;1.15;;;24.60;99.90;;;;;;6191509;23;20035;-92
2022/06/10 14:09:47;;;;;;;4.32;1.85;;;24.50;99.90;;;;;;6191484;23;20376;-92
2022/06/10 14:12:23;;;;;;;3.60;1.20;;;24.70;99.90;;;;;;6174425;23;20005;-91
2022/06/10 14:14:51;;;;;;;2.85;1.08;;;24.70;99.90;;;;;;6186469;23;20013;-91